sensor_id;sensor_type;location;lat;lon;timestamp;P1;durP1;ratioP1;P2;durP2;ratioP2
25449;SDS011;13371;52.080;5.624;2023-07-29T00:01:08;2.50;;;1.65;;
25449;SDS011;13371;52.080;5.624;2023-07-29T00:03:33;1.88;;;1.25;;
25449;SDS011;13371;52.080;5.624;2023-07-29T00:05:59;2.33;;;1.40;;
25449;SDS011;13371;52.080;5.624;2023-07-29T00:08:25;3.08;;;1.50;;
25449;SDS011;13371;52.080;5.624;2023-07-29T00:10:50;1.90;;;1.33;;
25449;SDS011;13371;52.080;5.624;2023-07-29T00:13:16;2.60;;;1.50;;
25449;SDS011;13371;52.080;5.624;2023-07-29T00:15:41;3.25;;;1.90;;
25449;SDS011;13371;52.080;5.624;2023-07-29T00:18:07;4.82;;;1.45;;
25449;SDS011;13371;52.080;5.624;2023-07-29T00:20:33;2.58;;;1.60;;
25449;SDS011;13371;52.080;5.624;2023-07-29T00:22:58;2.72;;;1.60;;
25449;SDS011;13371;52.080;5.624;2023-07-29T00:25:24;2.70;;;1.58;;
25449;SDS011;13371;52.080;5.624;2023-07-29T00:27:50;3.03;;;1.75;;
25449;SDS011;13371;52.080;5.624;2023-07-29T00:30:15;4.18;;;1.73;;
25449;SDS011;13371;52.080;5.624;2023-07-29T00:32:41;3.03;;;2.03;;
25449;SDS011;13371;52.080;5.624;2023-07-29T00:35:07;3.47;;;1.63;;
25449;SDS011;13371;52.080;5.624;2023-07-29T00:37:33;3.95;;;1.85;;
25449;SDS011;13371;52.080;5.624;2023-07-29T00:39:58;4.07;;;1.67;;
25449;SDS011;13371;52.080;5.624;2023-07-29T00:42:24;5.90;;;1.52;;
25449;SDS011;13371;52.080;5.624;2023-07-29T00:44:50;2.50;;;1.88;;
25449;SDS011;13371;52.080;5.624;2023-07-29T00:47:16;3.00;;;1.70;;
25449;SDS011;13371;52.080;5.624;2023-07-29T00:49:43;5.25;;;2.10;;
25449;SDS011;13371;52.080;5.624;2023-07-29T00:52:10;6.57;;;1.95;;
25449;SDS011;13371;52.080;5.624;2023-07-29T00:54:37;4.70;;;1.52;;
25449;SDS011;13371;52.080;5.624;2023-07-29T00:57:07;3.45;;;1.60;;
25449;SDS011;13371;52.080;5.624;2023-07-29T00:59:35;2.70;;;1.90;;
25449;SDS011;13371;52.080;5.624;2023-07-29T01:02:01;4.43;;;1.70;;
25449;SDS011;13371;52.080;5.624;2023-07-29T01:04:27;3.03;;;1.92;;
25449;SDS011;13371;52.080;5.624;2023-07-29T01:07:12;4.07;;;1.80;;
25449;SDS011;13371;52.080;5.624;2023-07-29T01:17:30;5.60;;;1.98;;
25449;SDS011;13371;52.080;5.624;2023-07-29T01:20:02;3.08;;;1.80;;
25449;SDS011;13371;52.080;5.624;2023-07-29T01:22:35;3.28;;;2.00;;
25449;SDS011;13371;52.080;5.624;2023-07-29T01:25:02;4.18;;;2.00;;
25449;SDS011;13371;52.080;5.624;2023-07-29T01:27:28;2.40;;;1.80;;
25449;SDS011;13371;52.080;5.624;2023-07-29T01:29:54;4.75;;;1.65;;
25449;SDS011;13371;52.080;5.624;2023-07-29T01:35:29;2.72;;;1.55;;
25449;SDS011;13371;52.080;5.624;2023-07-29T01:38:09;2.95;;;1.80;;
25449;SDS011;13371;52.080;5.624;2023-07-29T01:40:43;4.20;;;1.63;;
25449;SDS011;13371;52.080;5.624;2023-07-29T01:43:10;2.58;;;1.88;;
25449;SDS011;13371;52.080;5.624;2023-07-29T01:45:36;7.63;;;1.90;;
25449;SDS011;13371;52.080;5.624;2023-07-29T01:48:06;5.85;;;2.03;;
25449;SDS011;13371;52.080;5.624;2023-07-29T01:50:32;5.13;;;1.73;;
25449;SDS011;13371;52.080;5.624;2023-07-29T01:52:58;4.03;;;1.83;;
25449;SDS011;13371;52.080;5.624;2023-07-29T01:55:24;4.45;;;1.80;;
25449;SDS011;13371;52.080;5.624;2023-07-29T01:57:50;4.88;;;2.20;;
25449;SDS011;13371;52.080;5.624;2023-07-29T02:00:19;3.08;;;2.10;;
25449;SDS011;13371;52.080;5.624;2023-07-29T02:02:46;3.25;;;2.33;;
25449;SDS011;13371;52.080;5.624;2023-07-29T02:05:12;3.40;;;1.98;;
25449;SDS011;13371;52.080;5.624;2023-07-29T02:07:37;3.53;;;2.20;;
25449;SDS011;13371;52.080;5.624;2023-07-29T02:10:03;5.15;;;1.88;;
25449;SDS011;13371;52.080;5.624;2023-07-29T02:12:29;7.05;;;2.33;;
25449;SDS011;13371;52.080;5.624;2023-07-29T02:14:54;3.63;;;1.88;;
25449;SDS011;13371;52.080;5.624;2023-07-29T02:17:20;4.45;;;2.00;;
25449;SDS011;13371;52.080;5.624;2023-07-29T02:19:46;4.40;;;2.30;;
25449;SDS011;13371;52.080;5.624;2023-07-29T02:22:16;7.38;;;2.50;;
25449;SDS011;13371;52.080;5.624;2023-07-29T02:24:42;4.25;;;2.20;;
25449;SDS011;13371;52.080;5.624;2023-07-29T02:27:07;6.28;;;2.30;;
25449;SDS011;13371;52.080;5.624;2023-07-29T02:29:33;5.50;;;2.80;;
25449;SDS011;13371;52.080;5.624;2023-07-29T02:31:59;6.55;;;2.75;;
25449;SDS011;13371;52.080;5.624;2023-07-29T02:34:25;6.45;;;3.35;;
25449;SDS011;13371;52.080;5.624;2023-07-29T02:36:50;9.93;;;3.40;;
25449;SDS011;13371;52.080;5.624;2023-07-29T02:39:16;8.82;;;4.03;;
25449;SDS011;13371;52.080;5.624;2023-07-29T02:41:42;7.32;;;3.40;;
25449;SDS011;13371;52.080;5.624;2023-07-29T02:44:07;6.22;;;3.58;;
25449;SDS011;13371;52.080;5.624;2023-07-29T02:46:33;8.45;;;4.07;;
25449;SDS011;13371;52.080;5.624;2023-07-29T02:48:58;10.52;;;4.63;;
25449;SDS011;13371;52.080;5.624;2023-07-29T02:51:24;8.40;;;4.50;;
25449;SDS011;13371;52.080;5.624;2023-07-29T02:53:50;7.25;;;4.20;;
25449;SDS011;13371;52.080;5.624;2023-07-29T02:56:15;8.90;;;4.10;;
25449;SDS011;13371;52.080;5.624;2023-07-29T02:58:41;8.90;;;4.70;;
25449;SDS011;13371;52.080;5.624;2023-07-29T03:01:07;11.43;;;4.38;;
25449;SDS011;13371;52.080;5.624;2023-07-29T03:03:33;12.70;;;4.70;;
25449;SDS011;13371;52.080;5.624;2023-07-29T03:05:59;9.32;;;3.90;;
25449;SDS011;13371;52.080;5.624;2023-07-29T03:08:27;10.02;;;5.28;;
25449;SDS011;13371;52.080;5.624;2023-07-29T03:10:53;8.55;;;4.20;;
25449;SDS011;13371;52.080;5.624;2023-07-29T03:13:20;7.95;;;4.70;;
25449;SDS011;13371;52.080;5.624;2023-07-29T03:15:45;8.32;;;4.85;;
25449;SDS011;13371;52.080;5.624;2023-07-29T03:18:11;8.45;;;4.28;;
25449;SDS011;13371;52.080;5.624;2023-07-29T03:20:36;7.70;;;4.55;;
25449;SDS011;13371;52.080;5.624;2023-07-29T03:23:02;8.23;;;3.95;;
25449;SDS011;13371;52.080;5.624;2023-07-29T03:25:28;8.05;;;4.50;;
25449;SDS011;13371;52.080;5.624;2023-07-29T03:27:53;6.47;;;4.15;;
25449;SDS011;13371;52.080;5.624;2023-07-29T03:30:20;6.82;;;4.20;;
25449;SDS011;13371;52.080;5.624;2023-07-29T03:32:47;7.05;;;3.78;;
25449;SDS011;13371;52.080;5.624;2023-07-29T03:35:12;10.02;;;4.40;;
25449;SDS011;13371;52.080;5.624;2023-07-29T03:37:38;6.40;;;3.72;;
25449;SDS011;13371;52.080;5.624;2023-07-29T03:40:04;10.80;;;4.35;;
25449;SDS011;13371;52.080;5.624;2023-07-29T03:42:30;8.63;;;3.85;;
25449;SDS011;13371;52.080;5.624;2023-07-29T03:44:56;7.57;;;3.55;;
25449;SDS011;13371;52.080;5.624;2023-07-29T03:47:22;8.80;;;3.88;;
25449;SDS011;13371;52.080;5.624;2023-07-29T03:49:47;8.15;;;3.78;;
25449;SDS011;13371;52.080;5.624;2023-07-29T03:52:13;9.05;;;4.53;;
25449;SDS011;13371;52.080;5.624;2023-07-29T03:54:39;6.32;;;4.20;;
25449;SDS011;13371;52.080;5.624;2023-07-29T03:57:04;10.70;;;4.00;;
25449;SDS011;13371;52.080;5.624;2023-07-29T03:59:30;8.20;;;4.07;;
25449;SDS011;13371;52.080;5.624;2023-07-29T04:01:56;9.07;;;4.05;;
25449;SDS011;13371;52.080;5.624;2023-07-29T04:04:21;8.00;;;4.28;;
25449;SDS011;13371;52.080;5.624;2023-07-29T04:06:47;8.07;;;3.60;;
25449;SDS011;13371;52.080;5.624;2023-07-29T04:09:12;9.32;;;4.10;;
25449;SDS011;13371;52.080;5.624;2023-07-29T04:11:38;7.15;;;3.67;;
25449;SDS011;13371;52.080;5.624;2023-07-29T04:14:04;8.35;;;3.90;;
25449;SDS011;13371;52.080;5.624;2023-07-29T04:16:29;4.88;;;3.25;;
25449;SDS011;13371;52.080;5.624;2023-07-29T04:18:55;8.00;;;3.40;;
25449;SDS011;13371;52.080;5.624;2023-07-29T04:21:21;7.97;;;3.33;;
25449;SDS011;13371;52.080;5.624;2023-07-29T04:23:46;6.65;;;3.20;;
25449;SDS011;13371;52.080;5.624;2023-07-29T04:26:12;6.65;;;3.53;;
25449;SDS011;13371;52.080;5.624;2023-07-29T04:28:38;5.72;;;3.08;;
25449;SDS011;13371;52.080;5.624;2023-07-29T04:31:03;7.00;;;3.10;;
25449;SDS011;13371;52.080;5.624;2023-07-29T04:33:29;9.55;;;4.15;;
25449;SDS011;13371;52.080;5.624;2023-07-29T04:35:55;6.88;;;2.83;;
25449;SDS011;13371;52.080;5.624;2023-07-29T04:38:21;6.32;;;2.95;;
25449;SDS011;13371;52.080;5.624;2023-07-29T04:40:48;5.75;;;2.80;;
25449;SDS011;13371;52.080;5.624;2023-07-29T04:43:14;8.25;;;3.08;;
25449;SDS011;13371;52.080;5.624;2023-07-29T04:45:43;6.65;;;2.97;;
25449;SDS011;13371;52.080;5.624;2023-07-29T04:48:09;4.32;;;2.55;;
25449;SDS011;13371;52.080;5.624;2023-07-29T04:50:34;4.47;;;2.97;;
25449;SDS011;13371;52.080;5.624;2023-07-29T04:53:00;5.97;;;2.88;;
25449;SDS011;13371;52.080;5.624;2023-07-29T04:55:25;4.28;;;2.45;;
25449;SDS011;13371;52.080;5.624;2023-07-29T04:57:51;6.00;;;2.95;;
25449;SDS011;13371;52.080;5.624;2023-07-29T05:00:17;3.72;;;2.53;;
25449;SDS011;13371;52.080;5.624;2023-07-29T05:02:42;6.68;;;2.22;;
25449;SDS011;13371;52.080;5.624;2023-07-29T05:05:08;4.75;;;2.38;;
25449;SDS011;13371;52.080;5.624;2023-07-29T05:07:34;4.85;;;2.13;;
25449;SDS011;13371;52.080;5.624;2023-07-29T05:09:59;4.90;;;2.63;;
25449;SDS011;13371;52.080;5.624;2023-07-29T05:12:25;6.28;;;3.05;;
25449;SDS011;13371;52.080;5.624;2023-07-29T05:14:51;4.60;;;2.35;;
25449;SDS011;13371;52.080;5.624;2023-07-29T05:17:16;4.22;;;2.50;;
25449;SDS011;13371;52.080;5.624;2023-07-29T05:19:42;6.43;;;2.47;;
25449;SDS011;13371;52.080;5.624;2023-07-29T05:22:07;5.78;;;3.00;;
25449;SDS011;13371;52.080;5.624;2023-07-29T05:24:35;4.30;;;2.60;;
25449;SDS011;13371;52.080;5.624;2023-07-29T05:27:01;5.07;;;2.35;;
25449;SDS011;13371;52.080;5.624;2023-07-29T05:29:26;8.52;;;3.13;;
25449;SDS011;13371;52.080;5.624;2023-07-29T05:31:52;5.65;;;2.65;;
25449;SDS011;13371;52.080;5.624;2023-07-29T05:34:18;6.88;;;3.00;;
25449;SDS011;13371;52.080;5.624;2023-07-29T05:36:43;7.82;;;3.25;;
25449;SDS011;13371;52.080;5.624;2023-07-29T05:39:09;4.47;;;2.75;;
25449;SDS011;13371;52.080;5.624;2023-07-29T05:41:35;5.88;;;2.80;;
25449;SDS011;13371;52.080;5.624;2023-07-29T05:44:00;9.43;;;2.80;;
25449;SDS011;13371;52.080;5.624;2023-07-29T05:46:26;5.72;;;3.17;;
25449;SDS011;13371;52.080;5.624;2023-07-29T05:48:51;5.75;;;2.70;;
25449;SDS011;13371;52.080;5.624;2023-07-29T05:51:17;4.90;;;2.90;;
25449;SDS011;13371;52.080;5.624;2023-07-29T05:53:43;8.02;;;2.90;;
25449;SDS011;13371;52.080;5.624;2023-07-29T05:56:09;4.47;;;2.78;;
25449;SDS011;13371;52.080;5.624;2023-07-29T05:58:35;6.55;;;3.20;;
25449;SDS011;13371;52.080;5.624;2023-07-29T06:01:00;6.00;;;3.40;;
25449;SDS011;13371;52.080;5.624;2023-07-29T06:03:26;7.45;;;3.33;;
25449;SDS011;13371;52.080;5.624;2023-07-29T06:05:52;6.05;;;3.38;;
25449;SDS011;13371;52.080;5.624;2023-07-29T06:08:17;8.95;;;3.45;;
25449;SDS011;13371;52.080;5.624;2023-07-29T06:10:43;8.57;;;3.60;;
25449;SDS011;13371;52.080;5.624;2023-07-29T06:13:09;9.00;;;3.42;;
25449;SDS011;13371;52.080;5.624;2023-07-29T06:15:34;6.85;;;3.60;;
25449;SDS011;13371;52.080;5.624;2023-07-29T06:18:00;8.90;;;3.80;;
25449;SDS011;13371;52.080;5.624;2023-07-29T06:20:25;8.65;;;3.90;;
25449;SDS011;13371;52.080;5.624;2023-07-29T06:22:51;7.20;;;3.78;;
25449;SDS011;13371;52.080;5.624;2023-07-29T06:25:16;7.35;;;3.70;;
25449;SDS011;13371;52.080;5.624;2023-07-29T06:27:42;5.55;;;3.20;;
25449;SDS011;13371;52.080;5.624;2023-07-29T06:30:08;6.68;;;3.45;;
25449;SDS011;13371;52.080;5.624;2023-07-29T06:32:34;7.13;;;3.97;;
25449;SDS011;13371;52.080;5.624;2023-07-29T06:35:00;6.47;;;3.60;;
25449;SDS011;13371;52.080;5.624;2023-07-29T06:37:25;5.53;;;3.38;;
25449;SDS011;13371;52.080;5.624;2023-07-29T06:39:51;6.45;;;3.55;;
25449;SDS011;13371;52.080;5.624;2023-07-29T06:42:16;5.88;;;3.50;;
25449;SDS011;13371;52.080;5.624;2023-07-29T06:44:42;5.95;;;3.63;;
25449;SDS011;13371;52.080;5.624;2023-07-29T06:47:08;6.47;;;3.60;;
25449;SDS011;13371;52.080;5.624;2023-07-29T06:49:33;11.85;;;4.03;;
25449;SDS011;13371;52.080;5.624;2023-07-29T06:51:59;6.97;;;3.47;;
25449;SDS011;13371;52.080;5.624;2023-07-29T06:54:25;7.95;;;4.25;;
25449;SDS011;13371;52.080;5.624;2023-07-29T06:56:51;6.40;;;3.97;;
25449;SDS011;13371;52.080;5.624;2023-07-29T06:59:17;7.72;;;3.22;;
25449;SDS011;13371;52.080;5.624;2023-07-29T07:01:43;8.13;;;4.03;;
25449;SDS011;13371;52.080;5.624;2023-07-29T07:04:09;7.28;;;3.63;;
25449;SDS011;13371;52.080;5.624;2023-07-29T07:06:34;8.38;;;4.60;;
25449;SDS011;13371;52.080;5.624;2023-07-29T07:09:00;8.63;;;4.63;;
25449;SDS011;13371;52.080;5.624;2023-07-29T07:11:25;6.70;;;4.15;;
25449;SDS011;13371;52.080;5.624;2023-07-29T07:13:51;7.65;;;4.57;;
25449;SDS011;13371;52.080;5.624;2023-07-29T07:16:17;8.45;;;4.70;;
25449;SDS011;13371;52.080;5.624;2023-07-29T07:18:42;6.75;;;4.20;;
25449;SDS011;13371;52.080;5.624;2023-07-29T07:21:08;7.45;;;4.40;;
25449;SDS011;13371;52.080;5.624;2023-07-29T07:23:34;7.25;;;4.60;;
25449;SDS011;13371;52.080;5.624;2023-07-29T07:25:59;8.23;;;5.20;;
25449;SDS011;13371;52.080;5.624;2023-07-29T07:28:25;8.02;;;4.75;;
25449;SDS011;13371;52.080;5.624;2023-07-29T07:30:51;10.52;;;5.45;;
25449;SDS011;13371;52.080;5.624;2023-07-29T07:33:16;10.65;;;5.82;;
25449;SDS011;13371;52.080;5.624;2023-07-29T07:35:42;9.70;;;4.57;;
25449;SDS011;13371;52.080;5.624;2023-07-29T07:38:08;6.57;;;4.65;;
25449;SDS011;13371;52.080;5.624;2023-07-29T07:40:35;11.07;;;5.15;;
25449;SDS011;13371;52.080;5.624;2023-07-29T07:43:01;10.80;;;5.38;;
25449;SDS011;13371;52.080;5.624;2023-07-29T07:45:26;7.80;;;4.68;;
25449;SDS011;13371;52.080;5.624;2023-07-29T07:47:52;10.10;;;5.10;;
25449;SDS011;13371;52.080;5.624;2023-07-29T07:50:18;7.65;;;4.70;;
25449;SDS011;13371;52.080;5.624;2023-07-29T07:52:44;10.00;;;4.25;;
25449;SDS011;13371;52.080;5.624;2023-07-29T07:55:10;9.40;;;5.15;;
25449;SDS011;13371;52.080;5.624;2023-07-29T07:57:36;7.82;;;4.80;;
25449;SDS011;13371;52.080;5.624;2023-07-29T08:00:02;7.68;;;4.57;;
25449;SDS011;13371;52.080;5.624;2023-07-29T08:02:29;12.00;;;4.32;;
25449;SDS011;13371;52.080;5.624;2023-07-29T08:04:55;6.75;;;4.20;;
25449;SDS011;13371;52.080;5.624;2023-07-29T08:07:20;11.02;;;4.90;;
25449;SDS011;13371;52.080;5.624;2023-07-29T08:09:46;8.27;;;5.18;;
25449;SDS011;13371;52.080;5.624;2023-07-29T08:12:12;6.20;;;4.72;;
25449;SDS011;13371;52.080;5.624;2023-07-29T08:14:37;6.65;;;4.38;;
25449;SDS011;13371;52.080;5.624;2023-07-29T08:17:03;7.80;;;4.35;;
25449;SDS011;13371;52.080;5.624;2023-07-29T08:19:29;5.60;;;3.72;;
25449;SDS011;13371;52.080;5.624;2023-07-29T08:21:54;5.45;;;4.20;;
25449;SDS011;13371;52.080;5.624;2023-07-29T08:24:20;5.40;;;3.95;;
25449;SDS011;13371;52.080;5.624;2023-07-29T08:26:45;6.43;;;3.70;;
25449;SDS011;13371;52.080;5.624;2023-07-29T08:29:11;9.02;;;3.67;;
25449;SDS011;13371;52.080;5.624;2023-07-29T08:31:37;7.13;;;4.40;;
25449;SDS011;13371;52.080;5.624;2023-07-29T08:34:03;7.15;;;3.85;;
25449;SDS011;13371;52.080;5.624;2023-07-29T08:36:28;7.25;;;4.50;;
25449;SDS011;13371;52.080;5.624;2023-07-29T08:38:54;4.78;;;3.30;;
25449;SDS011;13371;52.080;5.624;2023-07-29T08:41:21;5.80;;;3.10;;
25449;SDS011;13371;52.080;5.624;2023-07-29T08:44:07;3.75;;;2.67;;
25449;SDS011;13371;52.080;5.624;2023-07-29T08:46:37;4.88;;;2.60;;
25449;SDS011;13371;52.080;5.624;2023-07-29T08:49:04;5.82;;;2.75;;
25449;SDS011;13371;52.080;5.624;2023-07-29T08:51:31;6.45;;;2.38;;
25449;SDS011;13371;52.080;5.624;2023-07-29T08:53:58;5.03;;;2.70;;
25449;SDS011;13371;52.080;5.624;2023-07-29T08:56:24;3.00;;;2.10;;
25449;SDS011;13371;52.080;5.624;2023-07-29T08:58:50;8.15;;;2.67;;
25449;SDS011;13371;52.080;5.624;2023-07-29T09:01:16;3.30;;;2.15;;
25449;SDS011;13371;52.080;5.624;2023-07-29T09:03:42;4.80;;;1.88;;
25449;SDS011;13371;52.080;5.624;2023-07-29T09:06:08;3.85;;;2.10;;
25449;SDS011;13371;52.080;5.624;2023-07-29T09:08:34;2.30;;;1.70;;
25449;SDS011;13371;52.080;5.624;2023-07-29T09:11:00;5.55;;;2.42;;
25449;SDS011;13371;52.080;5.624;2023-07-29T09:13:26;4.35;;;2.30;;
25449;SDS011;13371;52.080;5.624;2023-07-29T09:15:55;3.45;;;2.00;;
25449;SDS011;13371;52.080;5.624;2023-07-29T09:18:22;4.05;;;2.33;;
25449;SDS011;13371;52.080;5.624;2023-07-29T09:20:52;4.38;;;2.72;;
25449;SDS011;13371;52.080;5.624;2023-07-29T09:23:18;7.10;;;2.70;;
25449;SDS011;13371;52.080;5.624;2023-07-29T09:25:45;4.28;;;2.42;;
25449;SDS011;13371;52.080;5.624;2023-07-29T09:28:13;3.95;;;2.58;;
25449;SDS011;13371;52.080;5.624;2023-07-29T09:30:40;4.40;;;2.28;;
25449;SDS011;13371;52.080;5.624;2023-07-29T09:33:08;5.18;;;2.80;;
25449;SDS011;13371;52.080;5.624;2023-07-29T09:35:35;5.50;;;2.65;;
25449;SDS011;13371;52.080;5.624;2023-07-29T09:38:02;5.00;;;2.35;;
25449;SDS011;13371;52.080;5.624;2023-07-29T09:40:33;3.75;;;2.47;;
25449;SDS011;13371;52.080;5.624;2023-07-29T09:43:03;3.30;;;2.10;;
25449;SDS011;13371;52.080;5.624;2023-07-29T09:45:29;5.32;;;2.15;;
25449;SDS011;13371;52.080;5.624;2023-07-29T09:47:56;3.70;;;2.38;;
25449;SDS011;13371;52.080;5.624;2023-07-29T09:50:23;3.50;;;2.22;;
25449;SDS011;13371;52.080;5.624;2023-07-29T09:52:50;3.08;;;2.10;;
25449;SDS011;13371;52.080;5.624;2023-07-29T09:55:22;7.97;;;2.42;;
25449;SDS011;13371;52.080;5.624;2023-07-29T09:57:58;3.47;;;2.40;;
25449;SDS011;13371;52.080;5.624;2023-07-29T10:00:27;8.98;;;2.88;;
25449;SDS011;13371;52.080;5.624;2023-07-29T10:02:53;4.18;;;2.17;;
25449;SDS011;13371;52.080;5.624;2023-07-29T10:05:21;5.18;;;2.17;;
25449;SDS011;13371;52.080;5.624;2023-07-29T10:07:48;2.63;;;1.88;;
25449;SDS011;13371;52.080;5.624;2023-07-29T10:10:15;5.07;;;1.85;;
25449;SDS011;13371;52.080;5.624;2023-07-29T10:12:41;4.13;;;1.65;;
25449;SDS011;13371;52.080;5.624;2023-07-29T10:15:07;4.25;;;1.60;;
25449;SDS011;13371;52.080;5.624;2023-07-29T10:17:34;2.45;;;1.58;;
25449;SDS011;13371;52.080;5.624;2023-07-29T10:20:01;3.05;;;1.67;;
25449;SDS011;13371;52.080;5.624;2023-07-29T10:22:32;5.80;;;1.58;;
25449;SDS011;13371;52.080;5.624;2023-07-29T10:25:10;3.67;;;1.40;;
25449;SDS011;13371;52.080;5.624;2023-07-29T10:27:47;4.93;;;1.67;;
25449;SDS011;13371;52.080;5.624;2023-07-29T10:30:33;3.70;;;1.70;;
25449;SDS011;13371;52.080;5.624;2023-07-29T10:33:02;4.18;;;1.90;;
25449;SDS011;13371;52.080;5.624;2023-07-29T10:35:30;2.80;;;1.70;;
25449;SDS011;13371;52.080;5.624;2023-07-29T10:37:58;3.42;;;1.50;;
25449;SDS011;13371;52.080;5.624;2023-07-29T10:40:25;5.07;;;1.70;;
25449;SDS011;13371;52.080;5.624;2023-07-29T10:43:00;2.65;;;1.52;;
25449;SDS011;13371;52.080;5.624;2023-07-29T10:45:36;2.08;;;1.13;;
25449;SDS011;13371;52.080;5.624;2023-07-29T10:56:31;1.77;;;0.93;;
25449;SDS011;13371;52.080;5.624;2023-07-29T10:59:44;5.13;;;1.40;;
25449;SDS011;13371;52.080;5.624;2023-07-29T11:01:52;5.88;;;1.27;;
25449;SDS011;13371;52.080;5.624;2023-07-29T11:15:03;3.60;;;1.20;;
25449;SDS011;13371;52.080;5.624;2023-07-29T11:17:35;2.28;;;1.40;;
25449;SDS011;13371;52.080;5.624;2023-07-29T11:20:04;1.63;;;1.15;;
25449;SDS011;13371;52.080;5.624;2023-07-29T11:22:30;3.30;;;1.33;;
25449;SDS011;13371;52.080;5.624;2023-07-29T11:24:56;1.88;;;1.15;;
25449;SDS011;13371;52.080;5.624;2023-07-29T11:27:22;1.73;;;0.82;;
25449;SDS011;13371;52.080;5.624;2023-07-29T11:29:48;1.77;;;1.10;;
25449;SDS011;13371;52.080;5.624;2023-07-29T11:32:13;1.52;;;1.05;;
25449;SDS011;13371;52.080;5.624;2023-07-29T11:34:40;2.28;;;1.40;;
25449;SDS011;13371;52.080;5.624;2023-07-29T11:37:06;2.75;;;1.48;;
25449;SDS011;13371;52.080;5.624;2023-07-29T11:39:39;5.45;;;1.70;;
25449;SDS011;13371;52.080;5.624;2023-07-29T11:42:06;2.95;;;1.50;;
25449;SDS011;13371;52.080;5.624;2023-07-29T11:44:32;3.95;;;1.65;;
25449;SDS011;13371;52.080;5.624;2023-07-29T11:46:57;6.82;;;2.13;;
25449;SDS011;13371;52.080;5.624;2023-07-29T11:49:23;3.67;;;1.60;;
25449;SDS011;13371;52.080;5.624;2023-07-29T11:51:48;3.72;;;1.77;;
25449;SDS011;13371;52.080;5.624;2023-07-29T11:54:14;2.78;;;2.00;;
25449;SDS011;13371;52.080;5.624;2023-07-29T11:56:40;3.47;;;2.30;;
25449;SDS011;13371;52.080;5.624;2023-07-29T11:59:06;4.70;;;2.67;;
25449;SDS011;13371;52.080;5.624;2023-07-29T12:01:32;4.30;;;2.33;;
25449;SDS011;13371;52.080;5.624;2023-07-29T12:03:58;4.63;;;2.42;;
25449;SDS011;13371;52.080;5.624;2023-07-29T12:06:24;3.85;;;2.83;;
25449;SDS011;13371;52.080;5.624;2023-07-29T12:08:51;4.60;;;2.92;;
25449;SDS011;13371;52.080;5.624;2023-07-29T12:11:16;8.85;;;3.15;;
25449;SDS011;13371;52.080;5.624;2023-07-29T12:13:42;4.10;;;2.90;;
25449;SDS011;13371;52.080;5.624;2023-07-29T12:16:08;3.80;;;3.00;;
25449;SDS011;13371;52.080;5.624;2023-07-29T12:18:34;5.72;;;3.70;;
25449;SDS011;13371;52.080;5.624;2023-07-29T12:21:01;5.15;;;3.13;;
25449;SDS011;13371;52.080;5.624;2023-07-29T12:23:28;3.90;;;3.15;;
25449;SDS011;13371;52.080;5.624;2023-07-29T12:25:58;5.50;;;3.20;;
25449;SDS011;13371;52.080;5.624;2023-07-29T12:28:25;4.13;;;2.67;;
25449;SDS011;13371;52.080;5.624;2023-07-29T12:30:57;5.82;;;2.63;;
25449;SDS011;13371;52.080;5.624;2023-07-29T12:33:33;3.83;;;2.85;;
25449;SDS011;13371;52.080;5.624;2023-07-29T12:36:00;3.67;;;2.67;;
25449;SDS011;13371;52.080;5.624;2023-07-29T12:38:26;4.60;;;2.80;;
25449;SDS011;13371;52.080;5.624;2023-07-29T12:40:52;4.95;;;2.78;;
25449;SDS011;13371;52.080;5.624;2023-07-29T12:43:18;6.35;;;2.42;;
25449;SDS011;13371;52.080;5.624;2023-07-29T12:45:43;3.65;;;2.65;;
25449;SDS011;13371;52.080;5.624;2023-07-29T12:48:09;4.15;;;2.20;;
25449;SDS011;13371;52.080;5.624;2023-07-29T12:50:36;3.70;;;2.00;;
25449;SDS011;13371;52.080;5.624;2023-07-29T12:53:02;2.35;;;1.85;;
25449;SDS011;13371;52.080;5.624;2023-07-29T12:55:29;3.35;;;2.00;;
25449;SDS011;13371;52.080;5.624;2023-07-29T12:57:55;5.55;;;1.90;;
25449;SDS011;13371;52.080;5.624;2023-07-29T13:00:20;3.92;;;2.08;;
25449;SDS011;13371;52.080;5.624;2023-07-29T13:02:46;3.55;;;1.80;;
25449;SDS011;13371;52.080;5.624;2023-07-29T13:05:11;3.38;;;2.00;;
25449;SDS011;13371;52.080;5.624;2023-07-29T13:07:40;2.22;;;1.55;;
25449;SDS011;13371;52.080;5.624;2023-07-29T13:10:08;2.60;;;1.63;;
25449;SDS011;13371;52.080;5.624;2023-07-29T13:12:34;2.15;;;1.52;;
25449;SDS011;13371;52.080;5.624;2023-07-29T13:15:00;2.00;;;1.25;;
25449;SDS011;13371;52.080;5.624;2023-07-29T13:17:25;4.10;;;1.40;;
25449;SDS011;13371;52.080;5.624;2023-07-29T13:19:51;2.40;;;1.30;;
25449;SDS011;13371;52.080;5.624;2023-07-29T13:22:17;1.73;;;1.08;;
25449;SDS011;13371;52.080;5.624;2023-07-29T13:24:43;2.85;;;1.70;;
25449;SDS011;13371;52.080;5.624;2023-07-29T13:27:08;3.03;;;1.70;;
25449;SDS011;13371;52.080;5.624;2023-07-29T13:29:34;3.17;;;1.50;;
25449;SDS011;13371;52.080;5.624;2023-07-29T13:31:59;3.53;;;1.70;;
25449;SDS011;13371;52.080;5.624;2023-07-29T13:34:25;2.83;;;1.98;;
25449;SDS011;13371;52.080;5.624;2023-07-29T13:36:50;3.03;;;1.58;;
25449;SDS011;13371;52.080;5.624;2023-07-29T13:39:16;4.00;;;2.10;;
25449;SDS011;13371;52.080;5.624;2023-07-29T13:41:41;4.07;;;3.05;;
25449;SDS011;13371;52.080;5.624;2023-07-29T13:44:07;4.03;;;2.92;;
25449;SDS011;13371;52.080;5.624;2023-07-29T13:46:33;4.93;;;2.70;;
25449;SDS011;13371;52.080;5.624;2023-07-29T13:48:58;4.85;;;2.50;;
25449;SDS011;13371;52.080;5.624;2023-07-29T13:51:24;5.25;;;2.55;;
25449;SDS011;13371;52.080;5.624;2023-07-29T13:53:49;8.20;;;3.30;;
25449;SDS011;13371;52.080;5.624;2023-07-29T13:56:15;4.50;;;3.10;;
25449;SDS011;13371;52.080;5.624;2023-07-29T13:58:40;4.63;;;3.38;;
25449;SDS011;13371;52.080;5.624;2023-07-29T14:01:06;4.47;;;2.95;;
25449;SDS011;13371;52.080;5.624;2023-07-29T14:03:32;4.10;;;2.75;;
25449;SDS011;13371;52.080;5.624;2023-07-29T14:05:57;3.45;;;2.58;;
25449;SDS011;13371;52.080;5.624;2023-07-29T14:08:23;4.20;;;2.70;;
25449;SDS011;13371;52.080;5.624;2023-07-29T14:10:49;3.97;;;2.92;;
25449;SDS011;13371;52.080;5.624;2023-07-29T14:13:15;3.78;;;2.78;;
25449;SDS011;13371;52.080;5.624;2023-07-29T14:15:40;3.25;;;2.28;;
25449;SDS011;13371;52.080;5.624;2023-07-29T14:18:06;6.05;;;2.25;;
25449;SDS011;13371;52.080;5.624;2023-07-29T14:20:32;3.95;;;2.33;;
25449;SDS011;13371;52.080;5.624;2023-07-29T14:22:58;3.13;;;2.50;;
25449;SDS011;13371;52.080;5.624;2023-07-29T14:25:24;4.75;;;2.75;;
25449;SDS011;13371;52.080;5.624;2023-07-29T14:27:50;4.18;;;2.40;;
25449;SDS011;13371;52.080;5.624;2023-07-29T14:30:15;4.10;;;2.10;;
25449;SDS011;13371;52.080;5.624;2023-07-29T14:32:41;3.15;;;2.20;;
25449;SDS011;13371;52.080;5.624;2023-07-29T14:35:07;3.95;;;2.92;;
25449;SDS011;13371;52.080;5.624;2023-07-29T14:37:33;3.47;;;2.10;;
25449;SDS011;13371;52.080;5.624;2023-07-29T14:39:59;4.03;;;2.50;;
25449;SDS011;13371;52.080;5.624;2023-07-29T14:42:26;4.03;;;2.28;;
25449;SDS011;13371;52.080;5.624;2023-07-29T14:44:52;3.78;;;1.98;;
25449;SDS011;13371;52.080;5.624;2023-07-29T14:47:17;3.70;;;2.30;;
25449;SDS011;13371;52.080;5.624;2023-07-29T14:49:44;4.68;;;2.42;;
25449;SDS011;13371;52.080;5.624;2023-07-29T14:52:10;2.28;;;1.88;;
25449;SDS011;13371;52.080;5.624;2023-07-29T14:54:35;3.88;;;1.90;;
25449;SDS011;13371;52.080;5.624;2023-07-29T14:57:01;3.83;;;1.88;;
25449;SDS011;13371;52.080;5.624;2023-07-29T14:59:27;4.68;;;1.50;;
25449;SDS011;13371;52.080;5.624;2023-07-29T15:01:53;3.08;;;1.60;;
25449;SDS011;13371;52.080;5.624;2023-07-29T15:04:18;3.33;;;1.45;;
25449;SDS011;13371;52.080;5.624;2023-07-29T15:06:44;2.17;;;1.23;;
25449;SDS011;13371;52.080;5.624;2023-07-29T15:09:10;1.58;;;1.20;;
25449;SDS011;13371;52.080;5.624;2023-07-29T15:11:36;2.95;;;1.50;;
25449;SDS011;13371;52.080;5.624;2023-07-29T15:14:02;3.30;;;1.50;;